Terminal Aerodrome Forecast
Issued by NWS Dallas/Fort Worth, TX

Home | Current Version | Previous Version | Text Only | Print | Product List | Glossary On
Versions: 1 2 3 4 5 6 7 8 9 10 11 12 13 14 15 16 17 18 19 20 21 22 23 24 25 26 27 28 29 30 31 32 33 34 35 36 37 38 39 40 41
000
FTUS44 KFWD 252333
TAFDFW
TAF
KDFW 252333Z 2600/2706 26011KT P6SM SKC
     FM260200 21008KT P6SM SCT250
     FM262100 17012KT P6SM SCT040 BKN120
     FM270200 13014KT P6SM VCTS SCT040CB OVC080=

USA.gov is the U.S. government's official web portal to all federal, state and local government web resources and services.